createdAt,value
2022-12-18T00:00:20.324Z,7.88
2022-12-18T00:03:03.541Z,7.86
2022-12-18T00:05:51.499Z,7.83
2022-12-18T00:08:34.892Z,7.80
2022-12-18T00:11:20.651Z,7.74
2022-12-18T00:14:05.126Z,7.69
2022-12-18T00:16:49.578Z,7.55
2022-12-18T00:19:32.636Z,7.54
2022-12-18T00:22:15.748Z,7.56
2022-12-18T00:24:58.821Z,7.48
2022-12-18T00:27:42.063Z,7.44
2022-12-18T00:30:26.629Z,7.38
2022-12-18T00:33:09.770Z,7.24
2022-12-18T00:35:52.869Z,7.24
2022-12-18T00:38:36.478Z,7.12
2022-12-18T00:41:34.553Z,7.19
2022-12-18T00:44:19.956Z,7.19
2022-12-18T00:47:04.530Z,7.20
2022-12-18T00:49:47.772Z,7.19
2022-12-18T00:52:30.990Z,7.18
2022-12-18T00:55:15.216Z,7.22
2022-12-18T00:57:58.399Z,7.13
2022-12-18T01:00:41.574Z,7.05
2022-12-18T01:03:26.564Z,7.00
2022-12-18T01:06:11.285Z,7.01
2022-12-18T01:08:54.439Z,7.02
2022-12-18T01:11:37.553Z,6.94
2022-12-18T01:14:20.683Z,6.87
2022-12-18T01:17:04.757Z,6.88
2022-12-18T01:19:49.939Z,6.85
2022-12-18T01:22:33.071Z,6.69
2022-12-18T01:25:16.693Z,6.69
2022-12-18T01:27:59.874Z,6.69
2022-12-18T01:30:42.998Z,6.67
2022-12-18T01:33:26.133Z,6.70
2022-12-18T01:36:11.189Z,6.49
2022-12-18T01:38:55.399Z,6.45
2022-12-18T01:41:52.921Z,6.40
2022-12-18T01:45:08.290Z,6.32
2022-12-18T01:47:54.841Z,6.25
2022-12-18T01:50:40.025Z,6.32
2022-12-18T01:53:25.950Z,6.28
2022-12-18T01:56:10.690Z,6.28
2022-12-18T01:58:59.424Z,6.26
2022-12-18T02:01:42.755Z,6.07
2022-12-18T02:04:31.305Z,6.04
2022-12-18T02:07:27.123Z,6.12
2022-12-18T02:10:19.151Z,6.13
2022-12-18T02:13:07.695Z,6.08
2022-12-18T02:16:00.695Z,6.08
2022-12-18T02:18:47.588Z,6.01
2022-12-18T02:21:40.847Z,5.99
2022-12-18T02:24:35.480Z,5.96
2022-12-18T02:27:21.366Z,6.06
2022-12-18T02:30:07.352Z,6.08
2022-12-18T02:32:53.595Z,5.88
2022-12-18T02:35:38.779Z,5.95
2022-12-18T02:38:22.375Z,6.03
2022-12-18T02:41:07.451Z,6.01
2022-12-18T02:43:59.481Z,5.98
2022-12-18T02:46:45.613Z,6.04
2022-12-18T02:49:38.317Z,6.09
2022-12-18T02:52:33.927Z,6.08
2022-12-18T02:55:28.622Z,5.97
2022-12-18T02:58:18.142Z,6.06
2022-12-18T03:01:09.686Z,6.05
2022-12-18T03:03:58.666Z,5.99
2022-12-18T03:06:44.611Z,5.94
2022-12-18T03:09:34.194Z,5.92
2022-12-18T03:12:28.551Z,5.98
2022-12-18T03:15:17.817Z,5.87
2022-12-18T03:18:07.288Z,5.69
2022-12-18T03:20:57.049Z,5.75
2022-12-18T03:23:45.713Z,5.66
2022-12-18T03:26:30.146Z,5.67
2022-12-18T03:29:19.143Z,5.70
2022-12-18T03:32:07.211Z,5.69
2022-12-18T03:34:56.093Z,5.72
2022-12-18T03:37:39.487Z,5.64
2022-12-18T03:40:29.121Z,5.49
2022-12-18T03:43:19.453Z,5.54
2022-12-18T03:46:07.631Z,5.55
2022-12-18T03:48:55.663Z,5.53
2022-12-18T03:51:45.661Z,5.49
2022-12-18T03:54:30.709Z,5.39
2022-12-18T03:57:20.596Z,5.32
2022-12-18T04:00:08.685Z,5.35
2022-12-18T04:02:55.095Z,5.45
2022-12-18T04:05:39.727Z,5.40
2022-12-18T04:08:25.817Z,5.29
2022-12-18T04:11:09.193Z,5.32
2022-12-18T04:13:52.319Z,5.32
2022-12-18T04:16:35.637Z,5.37
2022-12-18T04:19:18.891Z,5.33
2022-12-18T04:22:02.068Z,5.30
2022-12-18T04:24:47.169Z,5.25
2022-12-18T04:27:30.394Z,5.29
2022-12-18T04:30:14.084Z,5.31
2022-12-18T04:32:57.128Z,5.25
2022-12-18T04:35:41.396Z,5.26
2022-12-18T04:38:24.533Z,5.22
2022-12-18T04:41:09.411Z,5.20
2022-12-18T04:43:52.460Z,5.27
2022-12-18T04:46:35.710Z,5.23
2022-12-18T04:49:19.019Z,5.23
2022-12-18T04:52:02.121Z,5.11
2022-12-18T04:54:45.208Z,5.00
2022-12-18T04:57:30.091Z,5.04
2022-12-18T05:00:14.643Z,5.14
2022-12-18T05:02:57.815Z,5.03
2022-12-18T05:05:41.094Z,5.07
2022-12-18T05:08:24.162Z,5.08
2022-12-18T05:11:09.779Z,5.02
2022-12-18T05:13:55.050Z,5.10
2022-12-18T05:16:38.854Z,5.08
2022-12-18T05:19:21.938Z,4.98
2022-12-18T05:22:05.046Z,4.90
2022-12-18T05:24:48.150Z,4.85
2022-12-18T05:27:31.649Z,4.90
2022-12-18T05:30:17.361Z,4.90
2022-12-18T05:33:00.554Z,4.83
2022-12-18T05:35:43.707Z,4.89
2022-12-18T05:38:28.799Z,4.86
2022-12-18T05:41:12.345Z,4.87
2022-12-18T05:43:55.615Z,4.83
2022-12-18T05:46:43.196Z,4.87
2022-12-18T05:49:26.412Z,4.90
2022-12-18T05:52:09.983Z,4.90
2022-12-18T05:54:53.408Z,4.87
2022-12-18T05:57:36.500Z,4.94
2022-12-18T06:00:20.059Z,4.88
2022-12-18T06:03:04.849Z,4.77
2022-12-18T06:05:48.163Z,4.84
2022-12-18T06:08:31.234Z,4.88
2022-12-18T06:11:14.259Z,4.87
2022-12-18T06:14:00.152Z,4.84
2022-12-18T06:16:43.854Z,4.91
2022-12-18T06:19:28.345Z,4.81
2022-12-18T06:22:11.675Z,4.81
2022-12-18T06:24:54.780Z,4.77
2022-12-18T06:27:37.834Z,4.90
2022-12-18T06:30:21.052Z,4.88
2022-12-18T06:33:04.129Z,4.78
2022-12-18T06:35:48.699Z,4.93
2022-12-18T06:38:31.930Z,4.85
2022-12-18T06:41:16.824Z,4.97
2022-12-18T06:44:00.319Z,5.02
2022-12-18T06:46:43.517Z,5.00
2022-12-18T06:49:30.400Z,5.01
2022-12-18T06:52:17.923Z,5.03
2022-12-18T06:55:02.177Z,5.04
2022-12-18T06:57:45.271Z,5.14
2022-12-18T07:00:28.316Z,5.07
2022-12-18T07:03:11.877Z,4.98
2022-12-18T07:05:55.649Z,5.12
2022-12-18T07:08:40.096Z,5.13
2022-12-18T07:11:23.344Z,5.19
2022-12-18T07:14:06.820Z,5.27
2022-12-18T07:16:50.004Z,5.20
2022-12-18T07:19:33.326Z,5.14
2022-12-18T07:22:16.672Z,5.16
2022-12-18T07:25:01.223Z,5.30
2022-12-18T07:27:44.483Z,5.23
2022-12-18T07:30:28.289Z,5.31
2022-12-18T07:33:11.340Z,5.28
2022-12-18T07:35:54.457Z,5.24
2022-12-18T07:38:38.120Z,5.29
2022-12-18T07:41:22.815Z,5.39
2022-12-18T07:44:06.470Z,5.32
2022-12-18T07:46:50.006Z,5.39
2022-12-18T07:49:33.334Z,5.30
2022-12-18T07:52:18.429Z,5.26
2022-12-18T07:55:04.583Z,5.39
2022-12-18T07:57:51.271Z,5.42
2022-12-18T08:00:35.339Z,5.38
2022-12-18T08:03:18.576Z,5.42
2022-12-18T08:06:03.246Z,5.57
2022-12-18T08:08:46.437Z,5.51
2022-12-18T08:11:30.752Z,5.39
2022-12-18T08:14:16.881Z,5.40
2022-12-18T08:17:00.374Z,5.23
2022-12-18T08:19:43.545Z,5.09
2022-12-18T08:22:26.658Z,5.17
2022-12-18T08:25:10.816Z,5.15
2022-12-18T08:27:54.884Z,5.14
2022-12-18T08:30:41.877Z,5.06
2022-12-18T08:33:25.556Z,5.02
2022-12-18T08:36:10.288Z,4.83
2022-12-18T08:38:53.842Z,4.89
2022-12-18T08:41:37.252Z,4.86
2022-12-18T08:44:37.453Z,4.87
2022-12-18T08:47:22.111Z,4.90
2022-12-18T08:50:05.650Z,4.85
2022-12-18T08:52:50.100Z,4.70
2022-12-18T08:55:33.207Z,4.96
2022-12-18T08:58:16.365Z,5.02
2022-12-18T09:01:03.177Z,5.28
2022-12-18T09:03:49.162Z,5.26
2022-12-18T09:06:32.487Z,5.40
2022-12-18T09:09:15.607Z,5.59
2022-12-18T09:11:58.701Z,5.26
2022-12-18T09:14:41.766Z,5.37
2022-12-18T09:17:25.060Z,5.33
2022-12-18T09:20:10.843Z,5.49
2022-12-18T09:22:53.901Z,5.45
2022-12-18T09:25:38.299Z,5.57
2022-12-18T09:28:21.729Z,5.44
2022-12-18T09:31:08.796Z,5.50
2022-12-18T09:33:52.671Z,5.59
2022-12-18T09:36:37.234Z,5.60
2022-12-18T09:39:21.828Z,5.67
2022-12-18T09:42:08.113Z,5.88
2022-12-18T09:44:53.222Z,6.07
2022-12-18T09:47:40.391Z,6.13
2022-12-18T09:50:29.700Z,5.97
2022-12-18T09:53:20.729Z,5.99
2022-12-18T09:56:06.424Z,5.97
2022-12-18T09:58:56.991Z,6.14
2022-12-18T10:01:44.344Z,6.23
2022-12-18T10:04:32.862Z,6.45
2022-12-18T10:07:22.423Z,6.56
2022-12-18T10:10:17.142Z,6.52
2022-12-18T10:13:10.700Z,6.57
2022-12-18T10:16:16.451Z,6.37
2022-12-18T10:19:17.740Z,6.29
2022-12-18T10:22:10.886Z,6.25
2022-12-18T10:25:02.676Z,6.14
2022-12-18T10:27:47.460Z,6.16
2022-12-18T10:30:30.581Z,6.29
2022-12-18T10:33:19.296Z,6.39
2022-12-18T10:36:04.004Z,6.16
2022-12-18T10:38:47.789Z,6.25
2022-12-18T10:41:32.022Z,6.17
2022-12-18T10:44:21.355Z,6.25
2022-12-18T10:47:11.668Z,6.31
2022-12-18T10:49:57.247Z,6.30
2022-12-18T10:52:43.622Z,6.30
2022-12-18T10:55:34.984Z,6.36
2022-12-18T10:58:28.128Z,6.32
2022-12-18T11:01:16.702Z,6.21
2022-12-18T11:04:09.768Z,6.28
2022-12-18T11:07:02.086Z,6.31
2022-12-18T11:09:45.221Z,6.31
2022-12-18T11:12:31.092Z,6.33
2022-12-18T11:15:18.940Z,6.35
2022-12-18T11:18:03.762Z,6.16
2022-12-18T11:20:58.328Z,6.26
2022-12-18T11:23:50.672Z,6.16
2022-12-18T11:26:39.384Z,6.19
2022-12-18T11:29:30.638Z,6.18
2022-12-18T11:32:31.785Z,6.23
2022-12-18T11:35:21.890Z,6.36
2022-12-18T11:38:12.499Z,6.14
2022-12-18T11:41:01.327Z,6.25
2022-12-18T11:43:52.358Z,6.32
2022-12-18T11:46:40.270Z,6.40
2022-12-18T11:49:28.996Z,6.39
2022-12-18T11:52:21.154Z,6.28
2022-12-18T11:55:13.485Z,6.12
2022-12-18T11:58:06.253Z,6.01
2022-12-18T12:00:55.192Z,5.93
2022-12-18T12:04:17.764Z,6.10
2022-12-18T12:07:08.810Z,6.06
2022-12-18T12:10:07.703Z,5.99
2022-12-18T12:13:04.777Z,5.91
2022-12-18T12:16:00.332Z,5.83
2022-12-18T12:18:57.567Z,5.88
2022-12-18T12:21:43.155Z,5.92
2022-12-18T12:24:41.078Z,5.97
2022-12-18T12:27:36.871Z,5.95
2022-12-18T12:30:23.702Z,5.91
2022-12-18T12:33:26.673Z,5.93
2022-12-18T12:36:17.273Z,6.01
2022-12-18T12:39:03.454Z,5.92
2022-12-18T12:42:06.291Z,5.93
2022-12-18T12:44:56.194Z,6.03
2022-12-18T12:47:44.592Z,6.00
2022-12-18T12:50:32.282Z,6.10
2022-12-18T12:53:24.671Z,5.99
2022-12-18T12:56:10.841Z,5.94
2022-12-18T12:59:07.586Z,5.95
2022-12-18T13:01:56.984Z,5.87
2022-12-18T13:04:48.250Z,5.90
2022-12-18T13:07:38.319Z,5.88
2022-12-18T13:10:34.263Z,5.79
2022-12-18T13:13:23.747Z,5.93
2022-12-18T13:16:11.697Z,5.95
2022-12-18T13:18:58.945Z,5.89
2022-12-18T13:21:42.472Z,5.98
2022-12-18T13:24:28.620Z,5.98
2022-12-18T13:27:46.317Z,6.14
2022-12-18T13:30:51.732Z,5.71
2022-12-18T13:34:24.349Z,5.71
2022-12-18T13:36:52.323Z,5.89
2022-12-18T13:39:36.714Z,5.86
2022-12-18T13:43:01.316Z,5.80
2022-12-18T13:45:47.887Z,5.70
2022-12-18T13:48:35.226Z,5.80
2022-12-18T13:51:21.936Z,5.72
2022-12-18T13:54:18.061Z,5.80
2022-12-18T13:57:02.269Z,5.91
2022-12-18T13:59:45.525Z,5.87
2022-12-18T14:02:30.865Z,5.74
2022-12-18T14:05:24.727Z,5.82
2022-12-18T14:08:12.355Z,5.90
2022-12-18T14:10:58.792Z,5.75
2022-12-18T14:13:44.349Z,5.74
2022-12-18T14:16:28.102Z,5.82
2022-12-18T14:19:16.058Z,5.87
2022-12-18T14:21:59.150Z,5.80
2022-12-18T14:24:42.240Z,5.80
2022-12-18T14:27:28.499Z,5.69
2022-12-18T14:30:30.747Z,5.64
2022-12-18T14:33:16.276Z,5.62
2022-12-18T14:36:01.680Z,5.55
2022-12-18T14:38:44.969Z,5.57
2022-12-18T14:41:28.937Z,5.63
2022-12-18T14:44:15.628Z,5.62
2022-12-18T14:46:59.115Z,5.60
2022-12-18T14:49:45.110Z,5.60
2022-12-18T14:52:34.258Z,5.55
2022-12-18T14:55:18.961Z,5.53
2022-12-18T14:58:02.243Z,5.44
2022-12-18T15:00:46.981Z,5.44
2022-12-18T15:03:31.497Z,5.37
2022-12-18T15:06:20.523Z,5.36
2022-12-18T15:09:07.791Z,5.36
2022-12-18T15:11:51.590Z,5.33
2022-12-18T15:14:37.816Z,5.37
2022-12-18T15:17:26.118Z,5.36
2022-12-18T15:20:15.768Z,5.32
2022-12-18T15:22:59.316Z,5.25
2022-12-18T15:25:42.687Z,5.22
2022-12-18T15:28:28.855Z,5.19
2022-12-18T15:31:25.884Z,5.08
2022-12-18T15:34:26.384Z,4.96
2022-12-18T15:37:09.922Z,4.97
2022-12-18T15:39:53.046Z,4.99
2022-12-18T15:42:53.971Z,4.94
2022-12-18T15:45:37.210Z,4.97
2022-12-18T15:48:23.903Z,4.94
2022-12-18T15:51:16.108Z,4.94
2022-12-18T15:54:04.960Z,4.86
2022-12-18T15:57:05.623Z,4.83
2022-12-18T15:59:48.912Z,4.86
2022-12-18T16:02:32.212Z,4.94
2022-12-18T16:05:18.073Z,4.99
2022-12-18T16:08:02.859Z,4.99
2022-12-18T16:10:45.997Z,5.07
2022-12-18T16:13:29.500Z,5.04
2022-12-18T16:16:12.647Z,4.72
2022-12-18T16:18:55.839Z,4.75
2022-12-18T16:21:39.045Z,4.74
2022-12-18T16:24:24.829Z,4.75
2022-12-18T16:27:08.680Z,4.71
2022-12-18T16:29:52.353Z,4.71
2022-12-18T16:32:35.738Z,4.71
2022-12-18T16:35:19.323Z,4.75
2022-12-18T16:38:02.770Z,4.78
2022-12-18T16:41:01.413Z,4.76
2022-12-18T16:43:45.539Z,4.61
2022-12-18T16:46:31.272Z,4.66
2022-12-18T16:49:15.161Z,4.41
2022-12-18T16:51:58.567Z,4.31
2022-12-18T16:54:41.729Z,4.46
2022-12-18T16:57:26.573Z,4.46
2022-12-18T17:00:11.046Z,4.47
2022-12-18T17:02:54.927Z,4.36
2022-12-18T17:05:38.142Z,4.39
2022-12-18T17:08:21.494Z,4.43
2022-12-18T17:11:09.325Z,4.47
2022-12-18T17:13:54.090Z,4.49
2022-12-18T17:16:37.377Z,4.43
2022-12-18T17:19:22.893Z,4.47
2022-12-18T17:22:06.411Z,4.37
2022-12-18T17:24:49.675Z,4.41
2022-12-18T17:27:32.984Z,4.35
2022-12-18T17:30:17.643Z,4.27
2022-12-18T17:33:00.717Z,4.27
2022-12-18T17:35:44.158Z,4.19
2022-12-18T17:38:27.758Z,4.22
2022-12-18T17:41:12.802Z,4.18
2022-12-18T17:43:56.773Z,4.04
2022-12-18T17:46:41.380Z,4.03
2022-12-18T17:49:24.523Z,4.06
2022-12-18T17:52:08.059Z,4.08
2022-12-18T17:54:51.193Z,4.07
2022-12-18T17:57:34.411Z,4.00
2022-12-18T18:00:21.157Z,4.04
2022-12-18T18:03:05.922Z,4.04
2022-12-18T18:05:49.425Z,3.98
2022-12-18T18:08:33.367Z,4.04
2022-12-18T18:11:35.841Z,4.01
2022-12-18T18:14:21.469Z,4.01
2022-12-18T18:17:05.168Z,3.93
2022-12-18T18:19:49.940Z,3.87
2022-12-18T18:22:33.816Z,4.00
2022-12-18T18:25:17.204Z,3.99
2022-12-18T18:28:01.333Z,4.04
2022-12-18T18:30:44.412Z,4.10
2022-12-18T18:33:27.638Z,4.07
2022-12-18T18:36:13.217Z,4.14
2022-12-18T18:38:56.444Z,4.09
2022-12-18T18:41:40.043Z,4.05
2022-12-18T18:44:24.876Z,3.74
2022-12-18T18:47:09.572Z,3.88
2022-12-18T18:49:54.366Z,3.81
2022-12-18T18:52:39.925Z,3.81
2022-12-18T18:55:25.807Z,3.71
2022-12-18T18:58:15.179Z,3.80
2022-12-18T19:01:00.038Z,3.74
2022-12-18T19:03:44.470Z,3.88
2022-12-18T19:06:29.430Z,3.80
2022-12-18T19:09:14.885Z,3.70
2022-12-18T19:12:15.528Z,3.62
2022-12-18T19:14:58.676Z,3.58
2022-12-18T19:17:42.098Z,3.49
2022-12-18T19:20:28.729Z,3.48
2022-12-18T19:23:12.267Z,3.55
2022-12-18T19:26:17.016Z,3.53
2022-12-18T19:29:04.706Z,3.45
2022-12-18T19:31:48.132Z,3.45
2022-12-18T19:34:31.346Z,3.52
2022-12-18T19:37:14.841Z,3.47
2022-12-18T19:39:59.352Z,3.37
2022-12-18T19:42:46.989Z,3.42
2022-12-18T19:45:31.134Z,3.36
2022-12-18T19:48:14.502Z,3.41
2022-12-18T19:50:57.958Z,3.30
2022-12-18T19:53:41.115Z,3.41
2022-12-18T19:56:26.458Z,3.42
2022-12-18T19:59:11.361Z,3.40
2022-12-18T20:01:54.759Z,3.19
2022-12-18T20:04:39.881Z,3.32
2022-12-18T20:07:23.250Z,3.35
2022-12-18T20:10:09.192Z,3.39
2022-12-18T20:12:52.490Z,3.36
2022-12-18T20:15:43.483Z,3.38
2022-12-18T20:18:28.401Z,3.44
2022-12-18T20:21:14.032Z,3.39
2022-12-18T20:23:59.186Z,3.33
2022-12-18T20:26:42.512Z,3.30
2022-12-18T20:29:25.971Z,3.19
2022-12-18T20:32:10.601Z,3.15
2022-12-18T20:34:55.462Z,3.15
2022-12-18T20:37:39.610Z,3.22
2022-12-18T20:40:26.052Z,2.94
2022-12-18T20:43:12.477Z,2.83
2022-12-18T20:46:06.322Z,2.87
2022-12-18T20:48:51.583Z,2.67
2022-12-18T20:51:35.086Z,2.72
2022-12-18T20:54:21.346Z,2.66
2022-12-18T20:57:04.662Z,2.64
2022-12-18T20:59:48.465Z,2.49
2022-12-18T21:02:32.199Z,2.49
2022-12-18T21:05:18.180Z,2.46
2022-12-18T21:08:01.366Z,2.34
2022-12-18T21:10:44.477Z,2.39
2022-12-18T21:13:27.819Z,2.43
2022-12-18T21:16:12.833Z,2.37
2022-12-18T21:19:00.031Z,2.30
2022-12-18T21:21:47.437Z,2.24
2022-12-18T21:24:32.866Z,2.13
2022-12-18T21:27:18.046Z,2.08
2022-12-18T21:30:01.403Z,2.24
2022-12-18T21:32:44.706Z,2.30
2022-12-18T21:35:27.816Z,2.26
2022-12-18T21:38:15.957Z,1.94
2022-12-18T21:40:59.499Z,2.09
2022-12-18T21:43:59.835Z,2.14
2022-12-18T21:46:44.744Z,2.02
2022-12-18T21:49:28.227Z,2.06
2022-12-18T21:52:11.611Z,2.11
2022-12-18T21:54:56.152Z,1.97
2022-12-18T21:57:39.505Z,1.97
2022-12-18T22:00:23.231Z,2.00
2022-12-18T22:03:18.354Z,1.97
2022-12-18T22:06:09.303Z,2.00
2022-12-18T22:08:53.091Z,2.00
2022-12-18T22:11:37.998Z,2.07
2022-12-18T22:14:21.472Z,2.00
2022-12-18T22:17:04.956Z,1.85
2022-12-18T22:19:48.576Z,1.87
2022-12-18T22:22:32.314Z,1.78
2022-12-18T22:25:15.706Z,1.75
2022-12-18T22:28:17.964Z,1.75
2022-12-18T22:31:01.114Z,1.81
2022-12-18T22:33:44.475Z,1.73
2022-12-18T22:36:30.264Z,1.70
2022-12-18T22:39:16.663Z,1.64
2022-12-18T22:42:00.173Z,1.74
2022-12-18T22:44:47.920Z,1.80
2022-12-18T22:47:31.023Z,1.78
2022-12-18T22:50:14.961Z,1.82
2022-12-18T22:52:58.302Z,1.84
2022-12-18T22:55:41.641Z,1.84
2022-12-18T22:58:24.700Z,1.87
2022-12-18T23:01:18.721Z,1.85
2022-12-18T23:04:01.922Z,1.82
2022-12-18T23:06:45.909Z,1.81
2022-12-18T23:09:29.350Z,1.86
2022-12-18T23:12:17.733Z,1.77
2022-12-18T23:15:01.479Z,1.73
2022-12-18T23:17:46.116Z,1.85
2022-12-18T23:20:29.642Z,1.90
2022-12-18T23:23:12.668Z,1.89
2022-12-18T23:26:02.532Z,2.00
2022-12-18T23:28:45.829Z,1.99
2022-12-18T23:31:30.777Z,1.97
2022-12-18T23:34:20.432Z,1.95
2022-12-18T23:37:04.268Z,1.91
2022-12-18T23:39:47.331Z,2.01
2022-12-18T23:42:30.523Z,2.03
2022-12-18T23:45:18.075Z,2.03
2022-12-18T23:48:01.837Z,1.95
2022-12-18T23:50:46.415Z,2.06
2022-12-18T23:53:29.499Z,1.83
2022-12-18T23:56:13.917Z,1.82
2022-12-18T23:58:57.359Z,1.84
